Time;durP1;ratioP1;P1;durP2;ratioP2;P2;SDS_P1;SDS_P2;PMS_P1;PMS_P2;Temp;Humidity;BMP_temperature;BMP_pressure;BME280_temperature;BME280_humidity;BME280_pressure;Samples;Min_cycle;Max_cycle;Signal;HPM_P1;HPM_P2
2021/07/12 00:00:12;;;;;;;3.70;3.38;;;19.20;77.50;;;;;;5024421;28;20182;-90
2021/07/12 00:02:37;;;;;;;4.47;3.60;;;19.20;77.90;;;;;;5000377;28;20178;-90
2021/07/12 00:05:05;;;;;;;3.47;3.17;;;19.30;77.70;;;;;;5017766;28;20210;-90
2021/07/12 00:07:31;;;;;;;3.70;3.40;;;19.40;76.80;;;;;;5016382;28;20197;-90
2021/07/12 00:09:56;;;;;;;4.03;3.70;;;19.40;76.30;;;;;;5000440;28;20209;-90
2021/07/12 00:12:22;;;;;;;4.25;3.50;;;19.20;77.60;;;;;;5017980;28;20185;-90
2021/07/12 00:14:47;;;;;;;6.50;3.60;;;19.10;78.10;;;;;;5018262;28;20192;-91
2021/07/12 00:17:16;;;;;;;4.90;3.80;;;18.90;78.90;;;;;;5000400;28;20241;-90
2021/07/12 00:19:42;;;;;;;3.95;3.55;;;18.70;79.50;;;;;;5017978;28;20204;-90
2021/07/12 00:22:08;;;;;;;4.88;4.03;;;18.60;80.10;;;;;;5000569;28;20268;-90
2021/07/12 00:24:33;;;;;;;4.47;3.72;;;18.60;80.20;;;;;;5017631;28;20187;-90
2021/07/12 00:26:59;;;;;;;5.80;3.70;;;18.60;80.40;;;;;;5000881;28;20185;-88
2021/07/12 00:29:25;;;;;;;3.83;3.53;;;18.80;79.90;;;;;;5019566;28;20224;-90
2021/07/12 00:31:50;;;;;;;4.20;3.60;;;18.80;78.80;;;;;;5014563;28;20192;-89
2021/07/12 00:34:19;;;;;;;3.75;3.45;;;18.90;79.00;;;;;;5022529;28;20193;-89
2021/07/12 00:36:45;;;;;;;5.70;3.80;;;19.10;78.50;;;;;;5023544;28;20220;-90
2021/07/12 00:39:10;;;;;;;4.05;3.67;;;19.10;77.70;;;;;;5018614;28;20208;-90
2021/07/12 00:41:36;;;;;;;3.85;3.50;;;19.20;77.30;;;;;;4999670;28;20182;-89
2021/07/12 00:44:05;;;;;;;3.80;3.28;;;19.20;77.20;;;;;;5017731;28;20181;-89
2021/07/12 00:46:31;;;;;;;4.10;3.80;;;19.20;77.30;;;;;;5018194;28;20178;-90
2021/07/12 00:48:57;;;;;;;4.00;3.60;;;19.10;77.60;;;;;;5017680;28;20579;-90
2021/07/12 00:51:23;;;;;;;4.28;3.88;;;19.10;77.40;;;;;;5018549;28;20186;-90
2021/07/12 00:53:50;;;;;;;4.07;3.78;;;18.90;78.30;;;;;;5018119;28;20264;-89
2021/07/12 00:56:15;;;;;;;3.60;3.38;;;18.70;79.20;;;;;;5018274;28;20204;-89
2021/07/12 00:58:41;;;;;;;4.13;3.72;;;18.50;79.70;;;;;;5000393;28;20227;-89
2021/07/12 01:01:08;;;;;;;4.60;4.00;;;18.50;80.10;;;;;;5019876;28;20209;-89
2021/07/12 01:03:34;;;;;;;4.03;3.63;;;18.50;80.10;;;;;;5022160;28;20189;-90
2021/07/12 01:06:01;;;;;;;4.15;3.75;;;18.60;79.90;;;;;;5022162;28;20237;-91
2021/07/12 01:08:27;;;;;;;4.05;3.67;;;18.80;78.90;;;;;;5021841;28;20208;-89
2021/07/12 01:11:21;;;;;;;4.10;3.63;;;18.90;78.40;;;;;;5009030;28;20190;-89
2021/07/12 01:14:07;;;;;;;3.65;3.45;;;19.00;77.60;;;;;;5028778;28;20220;-90
2021/07/12 01:16:39;;;;;;;5.47;3.25;;;18.80;78.10;;;;;;5026406;28;20193;-89
2021/07/12 01:19:31;;;;;;;4.03;3.60;;;18.60;79.20;;;;;;5021428;28;20201;-89
2021/07/12 01:22:09;;;;;;;6.45;3.83;;;18.60;79.20;;;;;;5021806;28;20177;-90
2021/07/12 01:24:56;;;;;;;3.67;3.40;;;18.80;78.80;;;;;;5021695;28;20176;-89
2021/07/12 01:27:52;;;;;;;4.30;3.90;;;18.80;78.40;;;;;;5004022;28;20184;-89
2021/07/12 01:30:42;;;;;;;3.97;3.50;;;18.90;77.30;;;;;;5028753;28;20181;-89
2021/07/12 01:33:14;;;;;;;3.70;3.40;;;18.90;77.00;;;;;;5040851;28;20206;-89
2021/07/12 01:35:58;;;;;;;4.13;3.50;;;18.90;76.60;;;;;;5041057;28;20288;-89
2021/07/12 01:38:48;;;;;;;3.70;3.40;;;18.90;76.70;;;;;;5040903;28;20258;-90
2021/07/12 01:41:26;;;;;;;7.30;3.67;;;18.80;76.30;;;;;;5040656;28;20220;-89
2021/07/12 01:44:00;;;;;;;5.38;3.40;;;18.70;77.70;;;;;;5040671;28;20235;-89
2021/07/12 01:46:30;;;;;;;6.72;3.67;;;18.80;77.90;;;;;;5040779;28;20627;-90
2021/07/12 01:49:12;;;;;;;3.47;3.10;;;18.80;78.10;;;;;;5040611;28;20193;-89
2021/07/12 01:52:01;;;;;;;4.45;3.45;;;18.90;77.60;;;;;;5041380;28;20169;-89
2021/07/12 01:54:59;;;;;;;3.78;3.47;;;18.90;77.40;;;;;;5023430;28;20541;-89
2021/07/12 01:57:42;;;;;;;3.20;3.00;;;18.90;76.40;;;;;;5041162;28;20246;-89
2021/07/12 02:00:11;;;;;;;3.53;3.22;;;18.90;77.10;;;;;;5040521;28;20175;-90
2021/07/12 02:02:41;;;;;;;3.05;2.85;;;18.90;76.90;;;;;;5040833;28;20177;-89
2021/07/12 02:05:16;;;;;;;3.35;2.90;;;18.90;76.80;;;;;;5022496;28;20173;-89
2021/07/12 02:07:44;;;;;;;3.58;3.28;;;18.80;77.30;;;;;;5040442;28;20188;-89
2021/07/12 02:10:10;;;;;;;4.15;3.30;;;18.80;77.20;;;;;;5040902;28;20835;-89
2021/07/12 02:12:37;;;;;;;3.55;3.08;;;18.60;77.60;;;;;;5056267;28;20208;-90
2021/07/12 02:15:06;;;;;;;7.15;3.30;;;18.50;78.90;;;;;;5048808;28;20172;-89
2021/07/12 02:17:32;;;;;;;3.30;3.00;;;18.40;79.30;;;;;;5045280;28;20192;-91
2021/07/12 02:20:00;;;;;;;4.15;3.17;;;18.40;79.30;;;;;;5036242;28;20189;-90
2021/07/12 02:22:28;;;;;;;4.22;3.10;;;18.40;78.50;;;;;;5059274;28;20236;-89
2021/07/12 02:24:56;;;;;;;4.28;2.92;;;18.40;78.40;;;;;;5054604;28;20576;-89
2021/07/12 02:27:23;;;;;;;4.85;3.15;;;18.20;79.00;;;;;;5040256;28;20314;-89
2021/07/12 02:29:49;;;;;;;4.22;3.38;;;18.20;79.70;;;;;;5040329;28;20231;-90
2021/07/12 02:32:18;;;;;;;3.90;2.83;;;18.20;78.60;;;;;;5039593;28;20180;-90
2021/07/12 02:34:44;;;;;;;9.98;3.20;;;18.00;79.20;;;;;;5039380;28;20230;-89
2021/07/12 02:37:12;;;;;;;3.72;3.42;;;17.90;80.30;;;;;;5021805;28;20777;-89
2021/07/12 02:39:40;;;;;;;5.15;3.42;;;18.00;81.00;;;;;;5040058;28;20192;-89
2021/07/12 02:42:08;;;;;;;3.17;2.92;;;18.10;80.10;;;;;;5022589;28;20214;-89
2021/07/12 02:44:35;;;;;;;4.15;2.88;;;18.20;79.30;;;;;;5039926;28;20184;-89
2021/07/12 02:47:01;;;;;;;3.15;2.90;;;18.30;79.30;;;;;;5039509;28;20181;-91
2021/07/12 02:49:28;;;;;;;4.55;3.28;;;18.40;78.90;;;;;;5022128;28;20212;-89
2021/07/12 02:51:57;;;;;;;3.08;2.78;;;18.30;78.40;;;;;;5039729;28;20191;-89
2021/07/12 02:54:28;;;;;;;7.13;3.58;;;18.30;78.90;;;;;;5021931;28;20229;-89
2021/07/12 02:56:54;;;;;;;4.15;2.92;;;18.30;78.90;;;;;;5039357;28;20206;-89
2021/07/12 02:59:20;;;;;;;3.00;2.80;;;18.30;78.60;;;;;;5021295;28;20231;-89
2021/07/12 03:01:46;;;;;;;6.03;2.92;;;18.20;78.80;;;;;;5038964;28;20201;-89
2021/07/12 03:04:12;;;;;;;4.13;3.17;;;18.20;79.10;;;;;;5021400;28;20177;-89
2021/07/12 03:06:38;;;;;;;3.42;2.97;;;18.10;79.10;;;;;;5040034;28;20216;-90
2021/07/12 03:09:30;;;;;;;3.65;3.15;;;18.00;79.40;;;;;;5039550;28;20258;-90
2021/07/12 03:12:24;;;;;;;3.40;3.10;;;18.00;79.60;;;;;;5039617;28;20169;-88
2021/07/12 03:15:03;;;;;;;3.85;2.88;;;18.00;79.40;;;;;;5038744;28;20165;-90
2021/07/12 03:17:32;;;;;;;3.83;3.35;;;18.00;78.50;;;;;;5038220;28;20558;-89
2021/07/12 03:19:59;;;;;;;4.85;3.50;;;18.00;79.10;;;;;;5021991;28;20565;-89
2021/07/12 03:22:26;;;;;;;3.83;3.28;;;17.70;80.70;;;;;;5027425;28;20234;-89
2021/07/12 03:24:56;;;;;;;3.93;3.27;;;17.60;81.70;;;;;;5018179;28;20180;-90
2021/07/12 03:27:23;;;;;;;5.75;3.17;;;17.50;82.30;;;;;;5020123;28;20226;-89
2021/07/12 03:29:50;;;;;;;4.05;3.10;;;17.60;81.50;;;;;;5018658;28;20289;-89
2021/07/12 03:32:21;;;;;;;3.35;2.78;;;17.70;80.90;;;;;;5002701;28;20216;-89
2021/07/12 03:34:49;;;;;;;3.92;3.63;;;17.70;80.40;;;;;;5019106;28;20249;-89
2021/07/12 03:37:15;;;;;;;5.07;3.05;;;17.70;80.10;;;;;;5001246;28;20220;-89
2021/07/12 03:39:43;;;;;;;5.18;3.10;;;17.60;80.50;;;;;;5033746;28;20190;-90
2021/07/12 03:42:10;;;;;;;3.38;3.08;;;17.70;80.50;;;;;;5022245;28;20187;-89
2021/07/12 03:44:39;;;;;;;3.17;2.97;;;17.70;80.30;;;;;;5021744;28;20548;-89
2021/07/12 03:47:05;;;;;;;4.90;3.25;;;17.80;79.80;;;;;;5039319;28;20692;-89
2021/07/12 03:49:31;;;;;;;4.97;3.10;;;17.80;79.80;;;;;;5039460;28;20204;-89
2021/07/12 03:51:58;;;;;;;4.32;3.28;;;17.90;79.30;;;;;;5021516;28;20643;-89
2021/07/12 03:54:24;;;;;;;5.53;3.40;;;17.90;78.80;;;;;;5039746;28;20204;-89
2021/07/12 03:56:50;;;;;;;4.30;3.38;;;17.70;79.80;;;;;;5039015;28;20204;-89
2021/07/12 03:59:16;;;;;;;5.07;4.07;;;17.60;80.60;;;;;;5038342;28;20579;-89
2021/07/12 04:01:42;;;;;;;5.20;3.95;;;17.30;81.30;;;;;;5039412;28;20849;-89
2021/07/12 04:04:08;;;;;;;8.93;4.17;;;17.20;82.80;;;;;;5038946;28;20189;-89
2021/07/12 04:06:34;;;;;;;4.67;3.47;;;17.20;83.70;;;;;;5020376;28;20182;-89
2021/07/12 04:09:00;;;;;;;5.10;3.53;;;17.30;83.10;;;;;;5039166;28;20202;-89
2021/07/12 04:11:33;;;;;;;3.97;3.00;;;17.30;83.40;;;;;;5021121;28;20192;-89
2021/07/12 04:13:59;;;;;;;4.17;3.07;;;17.30;83.40;;;;;;5038722;28;20257;-89
2021/07/12 04:16:25;;;;;;;4.95;3.53;;;17.40;82.90;;;;;;5021187;28;20291;-89
2021/07/12 04:18:50;;;;;;;5.38;3.35;;;17.50;82.10;;;;;;5037035;28;20235;-89
2021/07/12 04:21:16;;;;;;;3.72;3.38;;;17.60;81.60;;;;;;5039460;28;20180;-89
2021/07/12 04:23:42;;;;;;;6.20;3.60;;;17.70;80.90;;;;;;5038707;28;20191;-90
2021/07/12 04:26:07;;;;;;;4.28;3.97;;;17.70;81.70;;;;;;5021299;28;20214;-89
2021/07/12 04:28:33;;;;;;;3.88;3.50;;;17.60;82.20;;;;;;5038471;28;20202;-89
2021/07/12 04:30:59;;;;;;;3.88;3.53;;;17.60;82.60;;;;;;5038337;28;20219;-89
2021/07/12 04:33:25;;;;;;;4.47;3.50;;;17.50;82.20;;;;;;5039570;28;20195;-89
2021/07/12 04:35:52;;;;;;;5.18;3.72;;;17.40;83.30;;;;;;5022074;28;20202;-89
2021/07/12 04:38:17;;;;;;;4.37;3.80;;;17.40;83.00;;;;;;5042297;28;20187;-89
2021/07/12 04:40:43;;;;;;;4.25;3.85;;;17.50;83.40;;;;;;5042475;28;20543;-89
2021/07/12 04:43:09;;;;;;;5.95;3.80;;;17.60;83.20;;;;;;5041956;28;20178;-89
2021/07/12 04:45:35;;;;;;;4.50;4.10;;;17.70;83.00;;;;;;5043168;28;20188;-89
2021/07/12 04:48:00;;;;;;;4.63;4.25;;;17.80;82.60;;;;;;5025381;28;20205;-89
2021/07/12 04:50:26;;;;;;;7.57;4.28;;;17.80;82.70;;;;;;5042946;28;20176;-89
2021/07/12 04:52:52;;;;;;;5.03;4.30;;;17.80;82.80;;;;;;5042365;28;20547;-88
2021/07/12 04:55:18;;;;;;;5.53;3.80;;;17.80;82.90;;;;;;5042401;28;20180;-89
2021/07/12 04:57:45;;;;;;;4.40;4.00;;;17.80;83.50;;;;;;5042251;28;20192;-89
2021/07/12 05:00:11;;;;;;;4.32;3.88;;;17.80;83.80;;;;;;5014621;28;20275;-89
2021/07/12 05:02:38;;;;;;;7.93;3.50;;;17.90;83.40;;;;;;5017523;28;20179;-91
2021/07/12 05:05:06;;;;;;;4.30;4.00;;;17.90;83.00;;;;;;5017386;28;20211;-90
2021/07/12 05:07:32;;;;;;;5.65;3.55;;;17.90;82.80;;;;;;5004439;28;20193;-89
2021/07/12 05:09:57;;;;;;;3.55;3.30;;;18.10;82.60;;;;;;5007134;28;20214;-89
2021/07/12 05:12:23;;;;;;;6.60;3.78;;;18.10;82.70;;;;;;5038448;28;20203;-90
2021/07/12 05:14:49;;;;;;;4.47;3.47;;;18.10;82.50;;;;;;5035695;28;20547;-89
2021/07/12 05:17:15;;;;;;;4.45;4.03;;;18.10;82.50;;;;;;5030603;28;20296;-89
2021/07/12 05:19:41;;;;;;;8.88;4.13;;;18.10;82.80;;;;;;5025085;28;20189;-89
2021/07/12 05:22:07;;;;;;;4.20;3.80;;;17.90;83.80;;;;;;5004981;28;20181;-89
2021/07/12 05:24:33;;;;;;;6.03;3.83;;;17.80;84.60;;;;;;5021979;28;20180;-89
2021/07/12 05:26:59;;;;;;;5.07;3.80;;;17.70;84.70;;;;;;5005435;28;20256;-90
2021/07/12 05:29:24;;;;;;;4.83;4.00;;;17.70;84.90;;;;;;5023474;28;20230;-89
2021/07/12 05:31:50;;;;;;;4.23;3.70;;;17.70;85.00;;;;;;5040403;28;20572;-89
2021/07/12 05:34:16;;;;;;;5.65;3.78;;;17.80;85.00;;;;;;5040185;28;20193;-89
2021/07/12 05:36:42;;;;;;;4.40;4.00;;;17.70;85.00;;;;;;5040888;28;20209;-90
2021/07/12 05:39:07;;;;;;;4.37;3.83;;;17.80;85.30;;;;;;5039362;28;20206;-89
2021/07/12 05:41:34;;;;;;;5.65;4.00;;;17.90;84.50;;;;;;5006014;28;20178;-90
2021/07/12 05:44:00;;;;;;;4.30;3.90;;;18.10;84.00;;;;;;5024813;28;20216;-89
2021/07/12 05:46:25;;;;;;;4.23;3.90;;;18.10;84.40;;;;;;5020269;28;20682;-88
2021/07/12 05:48:51;;;;;;;4.45;4.03;;;18.10;83.90;;;;;;5003250;28;20298;-90
2021/07/12 05:51:17;;;;;;;3.80;3.50;;;18.20;84.40;;;;;;5020102;28;20276;-89
2021/07/12 05:53:42;;;;;;;5.53;4.00;;;18.20;84.90;;;;;;5000028;28;20196;-89
2021/07/12 05:56:08;;;;;;;4.80;4.00;;;18.40;84.50;;;;;;5020362;28;20218;-89
2021/07/12 05:58:34;;;;;;;4.75;3.95;;;18.40;84.40;;;;;;5002743;28;20222;-89
2021/07/12 06:01:00;;;;;;;7.00;4.47;;;18.50;84.60;;;;;;4988216;28;20188;-89
2021/07/12 06:03:25;;;;;;;4.85;4.10;;;18.70;83.60;;;;;;5021757;28;20204;-89
2021/07/12 06:05:51;;;;;;;6.20;4.15;;;18.70;82.90;;;;;;5020948;28;20659;-89
2021/07/12 06:08:20;;;;;;;5.25;4.72;;;18.80;82.40;;;;;;5020604;28;20802;-89
2021/07/12 06:10:46;;;;;;;5.32;4.35;;;18.80;82.30;;;;;;5021666;28;20180;-90
2021/07/12 06:13:12;;;;;;;5.65;4.47;;;18.80;82.10;;;;;;5022115;28;20185;-89
2021/07/12 06:15:39;;;;;;;5.97;4.22;;;18.90;82.40;;;;;;5004420;28;20197;-89
2021/07/12 06:18:11;;;;;;;6.35;4.65;;;19.00;81.60;;;;;;5023045;28;20200;-89
2021/07/12 06:20:36;;;;;;;7.85;5.00;;;19.10;81.80;;;;;;5032006;28;20171;-89
2021/07/12 06:23:02;;;;;;;8.45;4.57;;;19.20;82.40;;;;;;5023580;28;20235;-89
2021/07/12 06:25:28;;;;;;;5.80;4.97;;;19.20;81.70;;;;;;5024323;28;20234;-89
2021/07/12 06:27:53;;;;;;;6.78;4.45;;;19.20;81.80;;;;;;5042548;28;20863;-88
2021/07/12 06:30:20;;;;;;;6.65;4.30;;;19.30;80.50;;;;;;5008003;28;20177;-89
2021/07/12 06:32:46;;;;;;;6.75;4.47;;;19.30;81.10;;;;;;5041478;28;20323;-88
2021/07/12 06:35:12;;;;;;;5.97;4.47;;;19.40;80.80;;;;;;5021181;28;20666;-89
2021/07/12 06:37:38;;;;;;;4.88;3.90;;;19.40;81.00;;;;;;5022103;28;20205;-89
2021/07/12 06:40:05;;;;;;;6.50;4.13;;;19.50;80.80;;;;;;5004818;28;20231;-89
2021/07/12 06:42:31;;;;;;;6.57;3.92;;;19.50;80.70;;;;;;5020912;28;20189;-88
2021/07/12 06:44:59;;;;;;;5.63;3.92;;;19.60;81.70;;;;;;5026421;28;20216;-89
2021/07/12 06:47:26;;;;;;;8.30;4.15;;;19.70;81.10;;;;;;4998246;28;20185;-89
2021/07/12 06:49:52;;;;;;;4.93;4.38;;;19.80;80.60;;;;;;5004775;28;20594;-89
2021/07/12 06:52:18;;;;;;;6.40;4.13;;;19.90;80.70;;;;;;5037747;28;20181;-89
2021/07/12 06:54:47;;;;;;;8.15;4.22;;;20.00;80.40;;;;;;5041403;28;20435;-89
2021/07/12 06:57:13;;;;;;;4.25;3.70;;;20.00;79.40;;;;;;5041104;28;20570;-89
2021/07/12 06:59:39;;;;;;;7.97;4.15;;;20.00;79.20;;;;;;5040303;28;20212;-89
2021/07/12 07:02:05;;;;;;;7.50;3.85;;;20.10;78.30;;;;;;5040549;28;20188;-89
2021/07/12 07:04:31;;;;;;;7.38;3.95;;;20.30;78.40;;;;;;5007267;28;20196;-89
2021/07/12 07:06:57;;;;;;;5.07;3.72;;;20.40;76.80;;;;;;5022672;28;20181;-89
2021/07/12 07:09:22;;;;;;;6.32;3.67;;;20.40;77.60;;;;;;5023403;28;20212;-89
2021/07/12 07:11:48;;;;;;;4.45;3.20;;;20.60;76.90;;;;;;5023009;28;20644;-89
2021/07/12 07:14:14;;;;;;;4.20;3.10;;;20.70;76.10;;;;;;5037349;28;20280;-89
2021/07/12 07:16:40;;;;;;;3.80;3.00;;;20.90;74.80;;;;;;5020455;28;20210;-89
2021/07/12 07:19:05;;;;;;;3.22;2.92;;;20.90;74.60;;;;;;5019387;28;20622;-89
2021/07/12 07:21:31;;;;;;;3.72;3.30;;;21.00;74.60;;;;;;5022827;28;21653;-90
2021/07/12 07:23:57;;;;;;;5.00;3.38;;;21.10;75.10;;;;;;5026127;28;20178;-88
2021/07/12 07:26:22;;;;;;;3.20;2.90;;;21.10;75.20;;;;;;5020079;28;20181;-89
2021/07/12 07:28:48;;;;;;;3.55;3.25;;;21.10;75.40;;;;;;5016800;28;20197;-89
2021/07/12 07:31:14;;;;;;;4.07;3.30;;;21.10;75.00;;;;;;5016948;28;20708;-89
2021/07/12 07:33:41;;;;;;;5.75;3.72;;;21.10;76.10;;;;;;5024909;28;20189;-89
2021/07/12 07:36:06;;;;;;;3.30;3.00;;;21.10;76.30;;;;;;5033323;28;20230;-88
2021/07/12 07:38:32;;;;;;;4.80;3.45;;;21.30;76.50;;;;;;5017680;28;20210;-89
2021/07/12 07:40:58;;;;;;;3.63;3.17;;;21.50;75.30;;;;;;5034306;28;20192;-89
2021/07/12 07:43:24;;;;;;;4.30;3.10;;;21.70;74.90;;;;;;5018158;28;20216;-90
2021/07/12 07:45:50;;;;;;;4.43;3.42;;;22.10;73.10;;;;;;5015578;28;20186;-90
2021/07/12 07:48:15;;;;;;;3.70;3.08;;;22.20;72.10;;;;;;5015485;28;20209;-89
2021/07/12 07:50:43;;;;;;;6.20;3.50;;;22.30;72.40;;;;;;5015799;28;20717;-89
2021/07/12 07:53:10;;;;;;;3.13;2.92;;;22.50;72.70;;;;;;5016326;28;20269;-89
2021/07/12 07:55:36;;;;;;;3.45;3.15;;;22.60;73.00;;;;;;5015716;28;20185;-89
2021/07/12 07:58:02;;;;;;;3.42;3.00;;;22.90;70.50;;;;;;5006695;28;20302;-88
2021/07/12 08:00:29;;;;;;;3.47;3.17;;;23.00;68.20;;;;;;5009408;28;20201;-88
2021/07/12 08:02:55;;;;;;;4.22;3.10;;;23.10;68.60;;;;;;4992136;28;20258;-89
2021/07/12 08:05:21;;;;;;;4.57;3.47;;;23.10;67.30;;;;;;5032200;28;20643;-89
2021/07/12 08:07:47;;;;;;;4.32;3.05;;;23.30;67.50;;;;;;5014308;28;20722;-90
2021/07/12 08:10:16;;;;;;;4.45;2.78;;;23.50;67.50;;;;;;5015909;28;20189;-89
2021/07/12 08:12:43;;;;;;;4.72;2.80;;;23.60;64.50;;;;;;5005897;28;20252;-89
2021/07/12 08:15:11;;;;;;;3.20;2.90;;;23.80;64.20;;;;;;5031533;28;20185;-90
2021/07/12 08:17:37;;;;;;;3.58;3.00;;;23.80;64.30;;;;;;5027573;28;20213;-89
2021/07/12 08:20:10;;;;;;;3.00;2.80;;;23.90;63.60;;;;;;5013183;28;20728;-89
2021/07/12 08:22:35;;;;;;;3.22;2.53;;;23.80;62.80;;;;;;5037033;28;20259;-90
2021/07/12 08:25:03;;;;;;;2.90;2.70;;;23.70;61.70;;;;;;5028842;28;20178;-90
2021/07/12 08:27:31;;;;;;;3.00;2.80;;;23.70;62.30;;;;;;5029475;28;20582;-89
2021/07/12 08:29:57;;;;;;;3.08;2.88;;;23.70;62.20;;;;;;5025023;28;20225;-89
2021/07/12 08:32:23;;;;;;;2.90;2.70;;;23.80;62.70;;;;;;5028956;28;20200;-90
2021/07/12 08:34:48;;;;;;;3.22;2.90;;;24.00;62.90;;;;;;5028092;28;20208;-89
2021/07/12 08:37:14;;;;;;;3.03;2.83;;;24.00;62.30;;;;;;5030861;28;20205;-89
2021/07/12 08:39:40;;;;;;;3.30;3.00;;;24.10;62.00;;;;;;5007879;28;20295;-90
2021/07/12 08:42:06;;;;;;;5.50;3.10;;;24.10;61.30;;;;;;5038950;28;20656;-88
2021/07/12 08:44:32;;;;;;;4.78;2.78;;;24.30;61.90;;;;;;5041730;28;20185;-90
2021/07/12 08:46:58;;;;;;;4.88;2.90;;;24.30;61.90;;;;;;5018849;28;20249;-91
2021/07/12 08:49:25;;;;;;;3.38;2.83;;;24.40;61.70;;;;;;5037421;28;20215;-90
2021/07/12 08:51:51;;;;;;;3.63;2.72;;;24.70;61.00;;;;;;5028158;28;20184;-90
2021/07/12 08:54:17;;;;;;;7.80;3.17;;;24.80;60.40;;;;;;5027879;28;20189;-90
2021/07/12 08:56:43;;;;;;;3.90;2.97;;;25.00;60.60;;;;;;5019785;28;20307;-91
2021/07/12 08:59:26;;;;;;;6.30;2.88;;;25.00;59.10;;;;;;5026939;28;20221;-89
2021/07/12 09:02:05;;;;;;;4.25;2.92;;;25.10;60.50;;;;;;5020396;28;20177;-90
2021/07/12 09:04:31;;;;;;;3.33;3.03;;;25.10;59.70;;;;;;5027668;28;20176;-90
2021/07/12 09:07:06;;;;;;;6.13;3.28;;;25.30;60.30;;;;;;5036881;28;20174;-89
2021/07/12 09:09:32;;;;;;;2.90;2.70;;;25.50;58.60;;;;;;5013281;28;20216;-90
2021/07/12 09:12:09;;;;;;;3.92;2.90;;;25.50;58.00;;;;;;5001010;28;20193;-91
2021/07/12 09:14:39;;;;;;;3.35;3.05;;;25.70;56.30;;;;;;5013923;28;20207;-91
2021/07/12 09:17:06;;;;;;;3.10;2.80;;;25.70;55.80;;;;;;5035234;28;20216;-90
2021/07/12 09:19:35;;;;;;;3.22;2.92;;;25.70;55.80;;;;;;5035306;28;20205;-91
2021/07/12 09:22:11;;;;;;;3.63;3.10;;;25.60;57.30;;;;;;5034641;28;20173;-91
2021/07/12 09:24:41;;;;;;;3.00;2.70;;;25.60;57.90;;;;;;5002390;28;20188;-90
2021/07/12 09:27:08;;;;;;;3.80;3.22;;;25.70;56.40;;;;;;5017694;28;20178;-90
2021/07/12 09:29:37;;;;;;;3.22;3.03;;;25.80;56.50;;;;;;5015067;28;20201;-91
2021/07/12 09:32:09;;;;;;;3.85;3.17;;;25.80;56.60;;;;;;5017790;28;20684;-90
2021/07/12 09:34:35;;;;;;;3.10;2.90;;;26.00;57.20;;;;;;5000184;28;20199;-91
2021/07/12 09:37:02;;;;;;;4.90;3.15;;;26.10;55.80;;;;;;4999507;28;20212;-91
2021/07/12 09:39:35;;;;;;;5.80;3.22;;;26.30;55.20;;;;;;5015309;28;20212;-91
2021/07/12 09:42:10;;;;;;;4.47;3.08;;;26.30;54.20;;;;;;5045466;28;20169;-91
2021/07/12 09:44:40;;;;;;;5.38;2.80;;;26.40;53.70;;;;;;5040013;28;20188;-89
2021/07/12 09:47:20;;;;;;;3.10;2.80;;;26.50;54.00;;;;;;5029336;28;20192;-89
2021/07/12 09:49:47;;;;;;;2.90;2.70;;;26.50;53.60;;;;;;5036906;28;20217;-89
2021/07/12 09:52:16;;;;;;;3.65;3.28;;;26.50;54.40;;;;;;5034223;28;20198;-91
2021/07/12 09:54:44;;;;;;;4.60;3.08;;;26.70;53.50;;;;;;5019861;28;20181;-89
2021/07/12 09:57:09;;;;;;;3.30;3.00;;;26.90;53.60;;;;;;5037179;28;20209;-89
2021/07/12 09:59:36;;;;;;;4.68;2.80;;;26.90;52.70;;;;;;5045224;28;20224;-90
2021/07/12 10:02:03;;;;;;;3.42;3.00;;;27.00;53.60;;;;;;5030362;28;20180;-89
2021/07/12 10:04:29;;;;;;;8.40;4.00;;;27.00;53.20;;;;;;5039965;28;20222;-88
2021/07/12 10:06:55;;;;;;;4.47;3.20;;;27.10;53.50;;;;;;5018741;28;20220;-90
2021/07/12 10:09:23;;;;;;;3.40;3.10;;;27.10;52.00;;;;;;5019815;28;20189;-90
2021/07/12 10:11:54;;;;;;;3.75;2.97;;;27.00;52.30;;;;;;5026565;28;20236;-91
2021/07/12 10:14:21;;;;;;;3.13;2.85;;;27.00;52.90;;;;;;4999796;28;20679;-91
2021/07/12 10:16:48;;;;;;;3.78;3.13;;;27.00;53.20;;;;;;5015693;28;20209;-92
2021/07/12 10:19:14;;;;;;;3.42;3.13;;;27.20;53.20;;;;;;5017697;28;20703;-93
2021/07/12 10:21:46;;;;;;;4.32;3.30;;;27.40;53.80;;;;;;4998570;28;20181;-91
2021/07/12 10:24:12;;;;;;;4.80;3.03;;;27.60;50.30;;;;;;5017286;28;20173;-92
2021/07/12 10:26:59;;;;;;;5.05;3.55;;;27.70;50.40;;;;;;5032162;28;20214;-92
2021/07/12 10:29:37;;;;;;;3.38;3.17;;;27.80;50.20;;;;;;5024723;28;20247;-92
2021/07/12 10:32:10;;;;;;;5.05;3.13;;;28.20;49.00;;;;;;5010743;28;20244;-91
2021/07/12 10:34:47;;;;;;;3.95;2.95;;;28.30;49.00;;;;;;5018931;28;20181;-91
2021/07/12 10:37:26;;;;;;;3.60;3.00;;;28.40;47.40;;;;;;5036714;28;20220;-90
2021/07/12 10:40:10;;;;;;;3.25;2.95;;;28.60;47.30;;;;;;5005903;28;20231;-92
2021/07/12 10:42:42;;;;;;;2.92;2.72;;;28.80;46.40;;;;;;5008027;28;20615;-91
2021/07/12 10:45:16;;;;;;;5.13;3.08;;;28.90;45.10;;;;;;5012634;28;20181;-91
2021/07/12 10:48:04;;;;;;;4.40;2.90;;;29.00;45.80;;;;;;5014945;28;20174;-92
2021/07/12 10:50:50;;;;;;;4.80;3.22;;;28.70;45.50;;;;;;5006782;28;20657;-91
2021/07/12 10:53:16;;;;;;;3.50;3.20;;;28.40;47.20;;;;;;5021562;28;20186;-92
2021/07/12 10:55:57;;;;;;;3.97;3.10;;;28.40;47.10;;;;;;5077329;28;21060;-88
2021/07/12 10:58:26;;;;;;;3.22;3.03;;;28.60;46.60;;;;;;5072171;28;20194;-90
2021/07/12 11:00:55;;;;;;;3.85;3.08;;;28.80;46.20;;;;;;5056442;28;20186;-90
2021/07/12 11:03:41;;;;;;;3.25;3.05;;;28.70;47.60;;;;;;5056884;28;20188;-91
2021/07/12 11:06:09;;;;;;;3.67;3.42;;;28.90;46.70;;;;;;5055842;28;20222;-90
2021/07/12 11:08:55;;;;;;;3.30;3.10;;;29.20;46.10;;;;;;5058490;28;20673;-91
2021/07/12 11:11:22;;;;;;;3.70;3.30;;;29.20;45.40;;;;;;5059517;28;20184;-90
2021/07/12 11:14:02;;;;;;;3.40;3.20;;;29.50;44.40;;;;;;5056461;28;20277;-90
2021/07/12 11:16:41;;;;;;;3.83;3.38;;;29.40;42.30;;;;;;5058026;28;20211;-91
2021/07/12 11:19:27;;;;;;;3.30;3.10;;;29.60;42.90;;;;;;5056449;28;20172;-91
2021/07/12 11:22:15;;;;;;;3.78;3.30;;;29.90;43.80;;;;;;5067076;28;20259;-90
2021/07/12 11:25:01;;;;;;;3.25;3.00;;;30.00;42.70;;;;;;5077179;28;20261;-91
2021/07/12 11:27:40;;;;;;;3.63;3.38;;;30.20;42.50;;;;;;5072358;28;20191;-91
2021/07/12 11:30:25;;;;;;;3.70;3.50;;;30.70;40.90;;;;;;5063241;28;20182;-91
2021/07/12 11:32:52;;;;;;;3.55;3.35;;;31.10;41.40;;;;;;5060823;28;20180;-91
2021/07/12 11:35:21;;;;;;;3.88;3.58;;;30.90;40.20;;;;;;5056699;28;20218;-92
2021/07/12 11:37:58;;;;;;;5.05;4.20;;;31.10;39.70;;;;;;5061328;28;20183;-90
2021/07/12 11:40:24;;;;;;;4.30;3.55;;;30.90;39.40;;;;;;5060011;28;20176;-90
2021/07/12 11:42:53;;;;;;;3.78;3.47;;;30.60;40.70;;;;;;5070143;28;20594;-91
2021/07/12 11:45:20;;;;;;;3.67;3.20;;;30.40;42.00;;;;;;5066935;28;20199;-91
2021/07/12 11:47:56;;;;;;;3.47;3.28;;;30.50;40.50;;;;;;5067373;28;20279;-89
2021/07/12 11:50:30;;;;;;;3.42;3.22;;;30.30;41.20;;;;;;5084859;28;20190;-88
2021/07/12 11:53:04;;;;;;;4.68;3.47;;;29.80;41.90;;;;;;5076331;28;20181;-89
2021/07/12 11:55:34;;;;;;;9.65;4.13;;;30.20;42.60;;;;;;5078758;28;20242;-92
2021/07/12 11:58:02;;;;;;;8.18;4.03;;;30.70;40.90;;;;;;5088092;28;20203;-90
2021/07/12 12:00:36;;;;;;;3.30;3.10;;;30.80;40.50;;;;;;5081929;28;20168;-89
2021/07/12 12:03:06;;;;;;;8.40;4.03;;;30.80;39.80;;;;;;5066563;28;20205;-90
2021/07/12 12:05:34;;;;;;;7.25;3.88;;;30.80;41.20;;;;;;5051987;28;20204;-90
2021/07/12 12:08:01;;;;;;;3.50;3.20;;;30.60;41.70;;;;;;5052179;28;20219;-90
2021/07/12 12:10:28;;;;;;;3.80;3.28;;;30.60;42.10;;;;;;5055122;28;20219;-91
2021/07/12 12:13:03;;;;;;;3.90;3.60;;;30.40;41.80;;;;;;5040482;28;20572;-91
2021/07/12 12:15:36;;;;;;;5.22;3.38;;;30.10;43.60;;;;;;5048308;28;20208;-90
2021/07/12 12:18:11;;;;;;;3.30;3.10;;;29.80;42.10;;;;;;5055635;28;20185;-90
2021/07/12 12:20:42;;;;;;;4.22;3.33;;;29.60;43.60;;;;;;5048424;28;20275;-92
2021/07/12 12:23:10;;;;;;;3.58;3.35;;;29.70;44.10;;;;;;5066887;28;20188;-89
2021/07/12 12:26:01;;;;;;;7.35;4.38;;;29.70;43.10;;;;;;5064692;28;20216;-89
2021/07/12 12:28:31;;;;;;;3.30;3.00;;;29.90;43.50;;;;;;5061805;28;20697;-91
2021/07/12 12:31:08;;;;;;;4.05;3.65;;;29.90;42.90;;;;;;5054701;28;20204;-91
2021/07/12 12:33:41;;;;;;;3.78;3.47;;;30.00;43.00;;;;;;5048780;28;20165;-92
2021/07/12 12:36:12;;;;;;;3.60;3.40;;;30.10;43.50;;;;;;5044795;28;20201;-90
2021/07/12 12:38:52;;;;;;;3.90;3.60;;;30.60;40.90;;;;;;5051664;28;20173;-89
2021/07/12 12:41:23;;;;;;;3.50;3.30;;;31.00;40.40;;;;;;5053624;28;20180;-89
2021/07/12 12:44:05;;;;;;;3.72;3.42;;;31.50;39.40;;;;;;5046480;28;20186;-91
2021/07/12 12:46:32;;;;;;;3.92;3.72;;;31.80;38.60;;;;;;5050478;28;20177;-90
2021/07/12 12:48:58;;;;;;;4.07;3.78;;;32.10;38.90;;;;;;5045385;28;20188;-90
2021/07/12 12:51:35;;;;;;;3.55;3.35;;;32.00;38.40;;;;;;5043504;28;20185;-91
2021/07/12 12:54:07;;;;;;;3.95;3.60;;;32.20;37.80;;;;;;5036443;28;20239;-90
2021/07/12 12:56:35;;;;;;;3.90;3.60;;;31.60;38.70;;;;;;5043487;28;20188;-91
2021/07/12 12:59:04;;;;;;;4.55;3.42;;;31.60;39.20;;;;;;5040860;28;20508;-90